Time;durP1;ratioP1;P1;durP2;ratioP2;P2;SDS_P1;SDS_P2;PMS_P1;PMS_P2;Temp;Humidity;BMP_temperature;BMP_pressure;BME280_temperature;BME280_humidity;BME280_pressure;Samples;Min_cycle;Max_cycle;Signal;HPM_P1;HPM_P2
2023/08/04 00:00:38;;;;;;;42.13;26.80;;;;;;;27.29;56.92;96626.34;5089516;28;20619;-73
2023/08/04 00:03:05;;;;;;;53.23;31.23;;;;;;;27.36;57.04;96640.63;5089092;28;20307;-73
2023/08/04 00:05:33;;;;;;;47.27;29.57;;;;;;;27.15;57.26;96636.00;5088931;28;20622;-72
2023/08/04 00:08:00;;;;;;;28.60;18.17;;;;;;;27.10;57.43;96638.34;5088946;28;20580;-73
2023/08/04 00:10:27;;;;;;;23.93;16.60;;;;;;;27.12;57.32;96641.66;5088699;28;20247;-74
2023/08/04 00:12:54;;;;;;;34.70;20.87;;;;;;;27.07;57.33;96638.72;5088877;28;20257;-73
2023/08/04 00:15:21;;;;;;;29.60;18.13;;;;;;;27.01;57.11;96623.50;5088907;28;20575;-76
2023/08/04 00:17:48;;;;;;;31.13;20.00;;;;;;;26.97;57.90;96643.50;5088539;28;20213;-77
2023/08/04 00:20:15;;;;;;;26.00;18.70;;;;;;;26.90;58.05;96631.09;5088872;28;20823;-78
2023/08/04 00:22:42;;;;;;;32.07;19.53;;;;;;;26.36;59.40;96638.31;5088728;28;20672;-74
2023/08/04 00:25:10;;;;;;;38.10;25.43;;;;;;;26.01;60.69;96638.88;5088478;28;20192;-72
2023/08/04 00:27:38;;;;;;;45.70;27.50;;;;;;;25.77;61.48;96631.88;5070266;28;20291;-73
2023/08/04 00:30:06;;;;;;;53.43;33.00;;;;;;;25.74;61.95;96630.38;5088372;28;20201;-76
2023/08/04 00:32:34;;;;;;;48.47;30.93;;;;;;;25.70;62.08;96639.69;5088477;28;20199;-75
2023/08/04 00:35:03;;;;;;;41.00;26.53;;;;;;;25.65;62.16;96634.09;5088282;28;20228;-74
2023/08/04 00:37:33;;;;;;;47.27;29.33;;;;;;;25.78;61.94;96633.53;5070235;28;20215;-76
2023/08/04 00:40:00;;;;;;;41.53;27.90;;;;;;;25.81;61.53;96639.31;5070162;28;20275;-74
2023/08/04 00:42:30;;;;;;;43.50;28.43;;;;;;;25.96;60.75;96636.75;5070623;28;20667;-74
2023/08/04 00:44:57;;;;;;;45.00;28.10;;;;;;;26.09;60.59;96644.19;5070056;28;20184;-73
2023/08/04 00:47:29;;;;;;;42.60;28.93;;;;;;;26.14;60.25;96647.13;5087916;28;20237;-75
2023/08/04 00:49:56;;;;;;;43.10;26.40;;;;;;;26.17;60.47;96644.13;5070058;28;20249;-72
2023/08/04 00:52:23;;;;;;;45.00;27.33;;;;;;;26.27;60.05;96634.94;5068875;28;20180;-73
2023/08/04 00:54:51;;;;;;;34.30;25.10;;;;;;;26.25;60.12;96639.59;5088186;28;20196;-73
2023/08/04 00:57:18;;;;;;;45.00;28.27;;;;;;;26.10;60.35;96643.16;5069799;28;20212;-72
2023/08/04 00:59:45;;;;;;;38.20;25.20;;;;;;;25.81;61.20;96644.63;5087900;28;20252;-74
2023/08/04 01:02:13;;;;;;;40.53;26.43;;;;;;;25.73;61.15;96636.72;5087705;28;20188;-74
2023/08/04 01:04:41;;;;;;;39.10;24.40;;;;;;;25.77;61.33;96643.31;5069620;28;20187;-72
2023/08/04 01:07:22;;;;;;;33.07;20.87;;;;;;;25.63;62.02;96633.44;5087758;28;20273;-72
2023/08/04 01:10:18;;;;;;;24.37;16.43;;;;;;;25.58;62.01;96632.28;5069375;28;20223;-74
2023/08/04 01:13:00;;;;;;;18.93;14.43;;;;;;;25.40;62.53;96637.81;5087790;28;20216;-72
2023/08/04 01:15:28;;;;;;;19.60;14.23;;;;;;;25.32;62.87;96611.31;5087641;28;20214;-75
2023/08/04 01:17:55;;;;;;;23.53;15.47;;;;;;;25.32;63.22;96632.53;5087502;28;20318;-72
2023/08/04 01:20:24;;;;;;;20.00;14.67;;;;;;;25.10;63.58;96622.63;5087757;28;20201;-72
2023/08/04 01:22:52;;;;;;;18.37;13.67;;;;;;;25.29;63.03;96627.56;5087634;28;20691;-72
2023/08/04 01:25:36;;;;;;;19.00;14.10;;;;;;;25.38;62.79;96631.84;5087524;28;20705;-72
2023/08/04 01:28:15;;;;;;;20.33;12.27;;;;;;;25.60;62.20;96631.13;5087292;28;20682;-72
2023/08/04 01:30:44;;;;;;;15.00;11.33;;;;;;;25.76;61.55;96628.38;5087282;28;20200;-71
2023/08/04 01:33:13;;;;;;;12.90;10.50;;;;;;;25.72;60.85;96632.38;5069130;28;20685;-72
2023/08/04 01:35:40;;;;;;;13.17;11.27;;;;;;;25.92;60.74;96626.66;5069082;28;20264;-73
2023/08/04 01:38:08;;;;;;;20.23;15.07;;;;;;;25.87;61.33;96635.13;5052282;28;20232;-72
2023/08/04 01:40:35;;;;;;;23.03;15.47;;;;;;;25.88;61.60;96633.31;5068995;28;20268;-73
2023/08/04 01:43:06;;;;;;;16.97;12.30;;;;;;;26.01;60.40;96631.72;5069048;28;20603;-74
2023/08/04 01:45:33;;;;;;;22.23;14.97;;;;;;;25.97;60.75;96637.56;5069090;28;20191;-73
2023/08/04 01:48:00;;;;;;;28.23;17.03;;;;;;;25.71;61.37;96606.88;5086743;28;20917;-73
2023/08/04 01:50:28;;;;;;;23.93;16.07;;;;;;;25.92;60.46;96630.13;5069044;28;20283;-73
2023/08/04 01:52:55;;;;;;;16.50;13.17;;;;;;;25.89;59.86;96627.00;5087205;28;20258;-72
2023/08/04 01:55:22;;;;;;;15.70;10.77;;;;;;;25.89;60.00;96649.06;5087184;28;20238;-72
2023/08/04 01:57:49;;;;;;;12.87;10.57;;;;;;;25.88;59.54;96641.28;5086762;28;20220;-72
2023/08/04 02:00:18;;;;;;;14.03;11.37;;;;;;;25.80;59.89;96642.97;5068578;28;20196;-73
2023/08/04 02:02:46;;;;;;;16.60;11.93;;;;;;;25.77;59.93;96647.78;5068170;28;20199;-73
2023/08/04 02:05:14;;;;;;;14.40;11.13;;;;;;;25.70;59.39;96637.03;5051820;28;20200;-72
2023/08/04 02:07:41;;;;;;;12.40;9.93;;;;;;;25.74;59.30;96656.91;5087025;28;20188;-72
2023/08/04 02:10:09;;;;;;;11.40;9.67;;;;;;;25.65;59.19;96639.41;5086726;28;20235;-72
2023/08/04 02:12:36;;;;;;;12.53;8.63;;;;;;;25.66;59.17;96651.66;5087127;28;20230;-72
2023/08/04 02:15:05;;;;;;;13.23;10.53;;;;;;;25.24;60.13;96635.22;5068578;28;20189;-73
2023/08/04 02:17:34;;;;;;;16.23;10.70;;;;;;;24.94;61.83;96647.38;5086221;28;20218;-73
2023/08/04 02:20:05;;;;;;;13.87;10.80;;;;;;;25.00;61.64;96643.22;5086422;28;20199;-72
2023/08/04 02:22:32;;;;;;;12.47;9.83;;;;;;;24.74;62.48;96639.94;5085123;28;20203;-72
2023/08/04 02:24:59;;;;;;;13.37;10.07;;;;;;;24.61;63.70;96647.53;5086655;28;20189;-73
2023/08/04 02:27:28;;;;;;;10.13;9.07;;;;;;;24.54;63.56;96644.72;5068680;28;20291;-73
2023/08/04 02:29:55;;;;;;;10.80;9.60;;;;;;;24.71;63.39;96650.84;5086527;28;20284;-74
2023/08/04 02:32:23;;;;;;;13.30;9.60;;;;;;;24.94;62.35;96650.00;5068495;28;20210;-73
2023/08/04 02:34:51;;;;;;;10.73;9.13;;;;;;;25.08;61.67;96651.13;5068299;28;20187;-73
2023/08/04 02:37:18;;;;;;;13.57;9.20;;;;;;;25.14;61.72;96655.78;5086215;28;20188;-72
2023/08/04 02:39:45;;;;;;;12.03;10.27;;;;;;;25.23;62.35;96653.91;5086311;28;20188;-73
2023/08/04 02:42:12;;;;;;;10.83;9.17;;;;;;;25.37;61.84;96662.00;5086631;28;20182;-72
2023/08/04 02:44:41;;;;;;;11.57;10.33;;;;;;;25.24;61.08;96639.69;5086370;28;20910;-72
2023/08/04 02:47:08;;;;;;;12.07;10.63;;;;;;;25.45;61.04;96659.34;5086493;28;20191;-74
2023/08/04 02:49:35;;;;;;;12.67;10.20;;;;;;;25.36;60.69;96657.72;5068267;28;20216;-73
2023/08/04 02:52:08;;;;;;;13.67;10.67;;;;;;;25.27;61.15;96664.03;5086178;28;20198;-72
2023/08/04 02:54:35;;;;;;;10.60;9.10;;;;;;;25.15;61.90;96656.59;5086287;28;20187;-73
2023/08/04 02:57:03;;;;;;;13.77;10.43;;;;;;;25.17;61.65;96665.19;5067739;28;20340;-75
2023/08/04 02:59:30;;;;;;;14.33;9.27;;;;;;;25.19;61.85;96660.56;5086334;28;20229;-74
2023/08/04 03:01:57;;;;;;;11.60;9.80;;;;;;;25.09;62.42;96671.34;5068454;28;20220;-73
2023/08/04 03:04:24;;;;;;;11.50;9.90;;;;;;;25.15;61.98;96657.44;5068342;28;20195;-72
2023/08/04 03:06:51;;;;;;;11.30;9.93;;;;;;;25.09;62.16;96660.75;5085778;28;20194;-76
2023/08/04 03:09:18;;;;;;;12.33;10.60;;;;;;;24.88;62.62;96676.34;5085868;28;20655;-73
2023/08/04 03:11:46;;;;;;;12.53;10.50;;;;;;;24.57;63.67;96673.50;5051323;28;20199;-74
2023/08/04 03:14:13;;;;;;;13.33;10.60;;;;;;;24.37;64.56;96679.28;5087845;28;20218;-77
2023/08/04 03:16:40;;;;;;;14.53;11.07;;;;;;;24.06;65.37;96658.75;5088400;28;20233;-75
2023/08/04 03:19:07;;;;;;;17.40;12.90;;;;;;;24.05;66.17;96667.66;5089666;28;20212;-76
2023/08/04 03:21:34;;;;;;;21.03;13.87;;;;;;;24.18;65.83;96672.47;5089781;28;20188;-74
2023/08/04 03:24:01;;;;;;;18.03;13.27;;;;;;;24.58;65.47;96690.25;5089652;28;20190;-75
2023/08/04 03:26:31;;;;;;;18.83;12.00;;;;;;;24.60;65.16;96683.78;5089031;28;20191;-72
2023/08/04 03:28:58;;;;;;;16.13;11.83;;;;;;;24.60;65.04;96690.91;5089128;28;20688;-71
2023/08/04 03:31:25;;;;;;;15.20;11.67;;;;;;;24.42;66.26;96682.28;5089483;28;20198;-71
2023/08/04 03:33:52;;;;;;;19.37;13.60;;;;;;;24.53;66.07;96698.69;5081566;28;20198;-72
2023/08/04 03:36:19;;;;;;;18.57;13.70;;;;;;;24.63;65.48;96682.63;5073580;28;20190;-73
2023/08/04 03:38:46;;;;;;;16.83;12.33;;;;;;;24.61;65.64;96690.72;5081227;28;20226;-76
2023/08/04 03:41:13;;;;;;;16.30;13.30;;;;;;;24.59;65.78;96676.00;5086089;28;20186;-78
2023/08/04 03:43:40;;;;;;;18.47;14.20;;;;;;;24.52;65.45;96701.50;5089319;28;20190;-79
2023/08/04 03:46:07;;;;;;;20.50;14.17;;;;;;;24.55;66.05;96701.97;5089042;28;20195;-73
2023/08/04 03:48:34;;;;;;;19.13;14.03;;;;;;;24.56;65.73;96694.88;5089158;28;20281;-74
2023/08/04 03:51:01;;;;;;;20.40;14.93;;;;;;;24.46;65.76;96707.44;5088488;28;20256;-73
2023/08/04 03:53:28;;;;;;;20.60;15.27;;;;;;;24.78;64.90;96703.03;5088635;28;20193;-73
2023/08/04 03:55:55;;;;;;;15.23;12.30;;;;;;;24.90;64.73;96695.56;5088945;28;20623;-73
2023/08/04 03:58:23;;;;;;;13.23;11.70;;;;;;;25.43;63.00;96709.09;5088256;28;20223;-76
2023/08/04 04:00:50;;;;;;;14.03;11.83;;;;;;;25.50;61.32;96704.75;5088305;28;20197;-74
2023/08/04 04:03:17;;;;;;;15.03;12.10;;;;;;;25.66;61.18;96717.97;5088575;28;20193;-75
2023/08/04 04:05:44;;;;;;;15.47;12.27;;;;;;;25.49;60.74;96689.03;5088603;28;20196;-73
2023/08/04 04:08:11;;;;;;;14.03;12.40;;;;;;;25.75;60.36;96724.91;5070301;28;20640;-74
2023/08/04 04:10:38;;;;;;;19.70;14.77;;;;;;;25.64;60.88;96717.31;5088522;28;20217;-76
2023/08/04 04:13:05;;;;;;;20.17;14.60;;;;;;;25.61;60.81;96722.16;5088688;28;20195;-74
2023/08/04 04:15:32;;;;;;;21.10;15.63;;;;;;;25.23;62.07;96718.38;5080912;28;20613;-72
2023/08/04 04:18:00;;;;;;;21.90;15.17;;;;;;;24.85;62.32;96671.41;5087506;28;20219;-76
2023/08/04 04:20:27;;;;;;;18.23;14.40;;;;;;;24.97;62.47;96705.34;5087744;28;20732;-78
2023/08/04 04:22:55;;;;;;;21.43;15.83;;;;;;;25.14;61.88;96716.75;5069702;28;20679;-72
2023/08/04 04:25:22;;;;;;;20.17;14.70;;;;;;;25.24;61.62;96714.75;5088058;28;20192;-74
2023/08/04 04:27:49;;;;;;;15.50;12.37;;;;;;;25.29;61.12;96717.69;5069903;28;20216;-72
2023/08/04 04:30:16;;;;;;;16.43;12.60;;;;;;;25.39;59.39;96673.25;5088405;28;20202;-72
2023/08/04 04:32:43;;;;;;;15.53;11.50;;;;;;;25.67;59.24;96717.00;5088596;28;20198;-73
2023/08/04 04:35:10;;;;;;;14.63;12.30;;;;;;;25.79;58.88;96720.91;5070514;28;20220;-72
2023/08/04 04:37:37;;;;;;;16.47;11.17;;;;;;;25.58;58.60;96670.25;5088034;28;20188;-73
2023/08/04 04:40:05;;;;;;;16.90;12.07;;;;;;;26.27;57.17;96697.81;5088373;28;20711;-74
2023/08/04 04:42:33;;;;;;;17.37;12.17;;;;;;;26.87;56.06;96727.16;5087948;28;20291;-76
2023/08/04 04:45:00;;;;;;;17.73;12.23;;;;;;;27.12;55.40;96721.44;5087984;28;20195;-74
2023/08/04 04:47:31;;;;;;;12.43;11.10;;;;;;;27.46;55.50;96734.28;5070504;28;20275;-74
2023/08/04 04:49:58;;;;;;;18.60;11.97;;;;;;;27.52;54.51;96732.72;5087678;28;20216;-75
2023/08/04 04:52:32;;;;;;;14.00;12.40;;;;;;;27.19;55.11;96719.72;5087888;28;20216;-75
2023/08/04 04:55:00;;;;;;;15.97;11.73;;;;;;;27.39;55.37;96738.66;5087149;28;20212;-72
2023/08/04 04:57:30;;;;;;;14.27;11.60;;;;;;;27.84;54.19;96738.50;5087243;28;20212;-72
2023/08/04 04:59:58;;;;;;;16.70;12.50;;;;;;;27.97;53.75;96712.09;5069076;28;20232;-72
2023/08/04 05:02:25;;;;;;;17.43;11.73;;;;;;;28.07;54.70;96733.09;5069581;28;20664;-73
2023/08/04 05:04:52;;;;;;;13.93;11.70;;;;;;;28.13;53.85;96737.69;5069436;28;20664;-72
2023/08/04 05:07:19;;;;;;;14.33;11.90;;;;;;;28.05;54.39;96737.78;5087577;28;20216;-74
2023/08/04 05:09:46;;;;;;;13.23;11.83;;;;;;;28.09;54.29;96733.72;5087701;28;20305;-76
2023/08/04 05:12:13;;;;;;;19.97;13.30;;;;;;;28.28;54.82;96746.47;5087154;28;20193;-73
2023/08/04 05:14:41;;;;;;;12.70;11.23;;;;;;;28.16;53.78;96742.63;5087378;28;20207;-72
2023/08/04 05:17:08;;;;;;;13.37;10.43;;;;;;;28.10;53.72;96748.72;5069007;28;20271;-73
2023/08/04 05:19:35;;;;;;;12.30;10.40;;;;;;;28.51;52.91;96735.66;5087145;28;20277;-72
2023/08/04 05:22:02;;;;;;;13.43;10.43;;;;;;;28.29;53.37;96732.16;5087375;28;20218;-75
2023/08/04 05:24:29;;;;;;;14.17;10.47;;;;;;;28.51;53.27;96736.50;5087153;28;20199;-77
2023/08/04 05:26:57;;;;;;;11.30;10.10;;;;;;;28.50;52.82;96694.84;5069124;28;20191;-73
2023/08/04 05:29:24;;;;;;;10.67;9.57;;;;;;;28.60;52.94;96740.72;5068526;28;20678;-74
2023/08/04 05:31:51;;;;;;;13.70;10.30;;;;;;;28.85;52.69;96747.31;5068469;28;20185;-73
2023/08/04 05:34:19;;;;;;;14.83;10.37;;;;;;;29.07;53.25;96737.47;5086605;28;20193;-75
2023/08/04 05:36:46;;;;;;;13.07;10.90;;;;;;;29.36;51.36;96739.19;5086452;28;20192;-73
2023/08/04 05:39:13;;;;;;;16.23;10.63;;;;;;;29.16;50.93;96736.34;5085954;28;20242;-74
2023/08/04 05:41:41;;;;;;;14.47;10.17;;;;;;;29.25;51.69;96729.84;5086855;28;20181;-74
2023/08/04 05:44:08;;;;;;;13.33;10.07;;;;;;;29.58;50.55;96727.41;5086906;28;20220;-73
2023/08/04 05:46:36;;;;;;;10.10;9.10;;;;;;;29.63;49.70;96735.69;5086857;28;20196;-72
2023/08/04 05:49:05;;;;;;;13.90;10.20;;;;;;;29.94;49.52;96752.13;5052050;28;20188;-73
2023/08/04 05:51:32;;;;;;;11.57;10.30;;;;;;;29.80;50.36;96747.72;5068574;28;20265;-75
2023/08/04 05:53:59;;;;;;;11.20;9.90;;;;;;;29.93;48.66;96744.28;5068995;28;20212;-77
2023/08/04 05:56:26;;;;;;;12.63;10.03;;;;;;;30.38;48.33;96754.38;5087733;28;20195;-75
2023/08/04 05:58:54;;;;;;;12.87;9.07;;;;;;;30.44;47.86;96761.59;5068644;28;20219;-74
2023/08/04 06:01:21;;;;;;;12.97;9.97;;;;;;;30.72;46.94;96751.63;5051875;28;20230;-73
2023/08/04 06:03:48;;;;;;;11.40;9.53;;;;;;;30.54;46.75;96738.81;5068312;28;20191;-74
2023/08/04 06:06:15;;;;;;;11.30;9.87;;;;;;;30.58;47.69;96762.50;5068458;28;20261;-75
2023/08/04 06:08:42;;;;;;;14.17;10.00;;;;;;;30.76;47.17;96757.38;5085976;28;20223;-72
2023/08/04 06:11:09;;;;;;;11.03;8.93;;;;;;;30.83;46.14;96763.59;5086380;28;20689;-72
2023/08/04 06:13:37;;;;;;;12.97;9.00;;;;;;;30.78;46.82;96761.53;5034309;28;20192;-71
2023/08/04 06:16:04;;;;;;;9.97;8.97;;;;;;;30.51;47.48;96759.78;5067522;28;20245;-75
2023/08/04 06:18:31;;;;;;;10.23;9.23;;;;;;;30.39;48.96;96764.06;5066994;28;20212;-71
2023/08/04 06:20:59;;;;;;;13.17;9.70;;;;;;;30.48;48.95;96746.81;5085867;28;20197;-72
2023/08/04 06:23:26;;;;;;;11.40;9.53;;;;;;;30.66;48.41;96759.63;5085824;28;20204;-71
2023/08/04 06:25:54;;;;;;;11.17;8.90;;;;;;;30.77;48.31;96754.50;5085960;28;20203;-72
2023/08/04 06:28:21;;;;;;;11.43;9.07;;;;;;;30.82;48.31;96762.75;5042233;28;20259;-72
2023/08/04 06:30:48;;;;;;;14.87;10.07;;;;;;;30.94;47.96;96760.34;5066798;28;20641;-74
2023/08/04 06:33:15;;;;;;;10.80;9.43;;;;;;;31.03;47.77;96749.25;5085696;28;20503;-72
2023/08/04 06:35:44;;;;;;;10.37;8.53;;;;;;;31.03;48.16;96751.09;5068182;28;20196;-74
2023/08/04 06:38:11;;;;;;;12.53;9.90;;;;;;;31.09;48.36;96747.59;5085828;28;20197;-73
2023/08/04 06:40:39;;;;;;;14.90;9.47;;;;;;;31.46;46.92;96749.69;5086616;28;20216;-74
2023/08/04 06:43:07;;;;;;;10.75;9.75;;;;;;;31.49;46.71;96749.25;5052064;28;20261;-73
2023/08/04 06:45:34;;;;;;;10.77;9.00;;;;;;;31.42;45.53;96748.47;5067331;28;20739;-73
2023/08/04 06:48:01;;;;;;;9.98;8.43;;;;;;;31.47;44.09;96745.97;5086132;28;20575;-73
2023/08/04 06:50:29;;;;;;;11.80;8.87;;;;;;;31.56;44.79;96743.91;5053759;28;20555;-75
2023/08/04 06:52:56;;;;;;;9.37;7.77;;;;;;;31.50;44.35;96740.22;5071616;28;20639;-73
2023/08/04 06:55:23;;;;;;;9.25;8.10;;;;;;;31.84;44.05;96733.78;5073694;28;20221;-73
2023/08/04 06:58:30;;;;;;;11.18;8.00;;;;;;;32.07;41.50;96739.50;5057932;28;20342;-73
2023/08/04 07:01:51;;;;;;;11.43;7.78;;;;;;;32.20;41.00;96735.94;5070953;28;20201;-72
2023/08/04 07:05:12;;;;;;;11.73;8.23;;;;;;;32.12;40.85;96690.63;5068498;28;20273;-77
2023/08/04 07:08:32;;;;;;;10.52;7.00;;;;;;;32.08;41.01;96733.94;5052392;28;20192;-74
2023/08/04 07:11:17;;;;;;;8.65;7.63;;;;;;;32.03;39.25;96731.06;5027429;28;20708;-74
2023/08/04 07:13:45;;;;;;;12.05;8.15;;;;;;;31.96;40.20;96713.38;5048860;28;20658;-73
2023/08/04 07:16:12;;;;;;;14.25;12.23;;;;;;;32.08;38.75;96728.59;5048825;28;20194;-73
2023/08/04 07:18:39;;;;;;;10.05;7.40;;;;;;;32.26;39.13;96725.19;5047019;28;20277;-73
2023/08/04 07:21:09;;;;;;;9.13;7.95;;;;;;;32.54;39.73;96724.91;5048869;28;20194;-73
2023/08/04 07:23:37;;;;;;;16.08;9.10;;;;;;;32.74;38.93;96720.22;5048888;28;20189;-74
2023/08/04 07:26:05;;;;;;;11.25;9.45;;;;;;;32.87;38.06;96712.09;5047072;28;20280;-73
2023/08/04 07:28:33;;;;;;;10.48;8.57;;;;;;;32.99;37.76;96728.34;5048674;28;20186;-72
2023/08/04 07:31:04;;;;;;;11.27;9.18;;;;;;;33.06;38.24;96729.94;5047378;28;20194;-73
2023/08/04 07:33:32;;;;;;;10.73;6.90;;;;;;;33.24;36.06;96731.88;5047799;28;20215;-73
2023/08/04 07:35:59;;;;;;;8.60;6.50;;;;;;;33.54;35.73;96738.25;5047524;28;20202;-73
2023/08/04 07:38:28;;;;;;;10.13;7.35;;;;;;;32.98;35.98;96738.25;5048534;28;20673;-74
2023/08/04 07:40:56;;;;;;;10.43;8.13;;;;;;;32.93;36.66;96726.50;5049662;28;20273;-73
2023/08/04 07:43:24;;;;;;;8.75;7.90;;;;;;;33.20;37.59;96728.00;5048845;28;20194;-74
2023/08/04 07:45:53;;;;;;;10.20;6.97;;;;;;;33.23;36.11;96727.53;5046596;28;20198;-74
2023/08/04 07:48:21;;;;;;;10.40;6.45;;;;;;;33.20;34.63;96736.84;5047823;28;20868;-73
2023/08/04 07:50:50;;;;;;;8.70;6.53;;;;;;;33.14;35.51;96726.19;5029776;28;20312;-75
2023/08/04 07:53:18;;;;;;;11.48;6.22;;;;;;;33.25;35.14;96742.41;5046617;28;20217;-73
2023/08/04 07:55:58;;;;;;;8.23;6.28;;;;;;;33.20;35.07;96754.84;5046512;28;20182;-80
2023/08/04 07:58:25;;;;;;;6.25;5.63;;;;;;;32.24;35.94;96731.81;5046943;28;20198;-79
2023/08/04 08:00:52;;;;;;;7.97;6.80;;;;;;;32.50;38.03;96743.25;5047364;28;20264;-78
2023/08/04 08:03:20;;;;;;;7.90;7.10;;;;;;;32.62;38.70;96736.16;5013848;28;20700;-76
2023/08/04 08:05:48;;;;;;;8.48;6.40;;;;;;;32.66;38.41;96736.59;5046544;28;20202;-80
2023/08/04 08:08:18;;;;;;;8.52;7.63;;;;;;;32.85;37.93;96741.03;5046383;28;20208;-75
2023/08/04 08:10:45;;;;;;;11.48;7.20;;;;;;;33.16;38.39;96734.84;5047753;28;20795;-79
2023/08/04 08:13:13;;;;;;;8.98;7.68;;;;;;;33.06;37.21;96754.09;5029833;28;20190;-75
2023/08/04 08:15:40;;;;;;;7.72;6.07;;;;;;;32.65;36.90;96743.81;5029815;28;20548;-74
2023/08/04 08:18:08;;;;;;;6.35;5.72;;;;;;;32.79;35.57;96741.84;5048140;28;20194;-78
2023/08/04 08:20:40;;;;;;;7.20;5.90;;;;;;;32.88;34.96;96737.88;5049295;28;20210;-73
2023/08/04 08:23:08;;;;;;;6.53;5.85;;;;;;;33.14;34.69;96750.34;5049076;28;20190;-73
2023/08/04 08:25:36;;;;;;;7.65;6.72;;;;;;;32.64;35.31;96722.56;5048709;28;20213;-74
2023/08/04 08:28:04;;;;;;;11.05;7.40;;;;;;;32.88;35.42;96743.25;5048888;28;20205;-73
2023/08/04 08:30:31;;;;;;;10.88;8.15;;;;;;;33.15;35.25;96742.06;5048452;28;20194;-73
2023/08/04 08:32:58;;;;;;;12.00;8.98;;;;;;;33.51;34.63;96739.50;5047131;28;20630;-74
2023/08/04 08:35:25;;;;;;;12.93;10.63;;;;;;;33.58;35.43;96742.97;5047468;28;20291;-73
2023/08/04 08:38:32;;;;;;;12.00;9.95;;;;;;;33.22;35.85;96736.66;5045716;28;20190;-78
2023/08/04 08:41:53;;;;;;;7.85;7.05;;;;;;;32.97;36.21;96728.53;5044937;28;20213;-78
2023/08/04 08:45:14;;;;;;;21.60;16.92;;;;;;;33.01;36.71;96721.72;5044571;28;20190;-73
2023/08/04 08:48:35;;;;;;;15.90;13.05;;;;;;;33.36;36.28;96722.06;5044947;28;20281;-74
2023/08/04 08:51:56;;;;;;;12.68;10.95;;;;;;;33.09;37.26;96713.41;5044617;28;20197;-73
2023/08/04 08:54:37;;;;;;;20.35;17.13;;;;;;;33.25;36.93;96715.53;5044676;28;20653;-74
2023/08/04 08:57:05;;;;;;;34.35;23.75;;;;;;;33.39;35.81;96695.59;5045801;28;20178;-72
2023/08/04 08:59:33;;;;;;;21.73;16.13;;;;;;;33.54;36.19;96706.84;5047031;28;20222;-74
2023/08/04 09:02:02;;;;;;;12.18;8.63;;;;;;;33.25;36.83;96702.13;5046919;28;20243;-73
2023/08/04 09:04:33;;;;;;;10.30;8.80;;;;;;;33.49;36.78;96709.34;5046762;28;20194;-72
2023/08/04 09:07:00;;;;;;;12.20;8.35;;;;;;;33.55;36.41;96715.72;5046877;28;20275;-72
2023/08/04 09:09:28;;;;;;;10.18;6.78;;;;;;;33.81;35.85;96714.63;5056427;28;20613;-75
2023/08/04 09:11:58;;;;;;;9.10;8.20;;;;;;;33.49;36.22;96709.34;5031990;28;20219;-73
2023/08/04 09:14:25;;;;;;;10.40;7.05;;;;;;;33.50;36.54;96702.13;5066202;28;20181;-71
2023/08/04 09:16:53;;;;;;;8.32;7.53;;;;;;;33.43;36.08;96696.78;5067044;28;20680;-72
2023/08/04 09:19:20;;;;;;;8.30;7.28;;;;;;;33.44;36.21;96702.97;5032676;28;20217;-74
2023/08/04 09:21:56;;;;;;;7.70;6.85;;;;;;;33.32;37.11;96680.59;5066455;28;20189;-73
2023/08/04 09:24:24;;;;;;;9.13;6.95;;;;;;;33.62;36.15;96700.34;5066873;28;20625;-74
2023/08/04 09:26:51;;;;;;;8.23;6.93;;;;;;;33.42;35.92;96697.84;5071123;28;20256;-74
2023/08/04 09:29:18;;;;;;;8.02;6.53;;;;;;;33.30;35.92;96702.28;5068366;28;20192;-73
2023/08/04 09:31:48;;;;;;;6.93;6.22;;;;;;;33.54;35.35;96682.66;5086514;28;20184;-73
2023/08/04 09:34:15;;;;;;;9.18;7.10;;;;;;;33.55;35.43;96681.59;5086550;28;20327;-73
2023/08/04 09:36:45;;;;;;;7.25;6.28;;;;;;;33.64;34.93;96674.91;5086282;28;20189;-73
2023/08/04 09:39:12;;;;;;;8.02;6.57;;;;;;;33.51;35.62;96683.09;5086236;28;20195;-73
2023/08/04 09:41:45;;;;;;;8.40;6.88;;;;;;;33.64;34.94;96671.41;5068676;28;20185;-74
2023/08/04 09:44:14;;;;;;;9.50;7.32;;;;;;;33.75;34.50;96645.66;5051483;28;20690;-72
2023/08/04 09:46:54;;;;;;;8.38;6.35;;;;;;;33.58;34.96;96667.75;5062654;28;20197;-73
2023/08/04 09:49:21;;;;;;;7.22;6.10;;;;;;;33.88;33.98;96672.38;5082202;28;20192;-73
2023/08/04 09:51:52;;;;;;;8.18;6.78;;;;;;;34.14;33.89;96672.91;5084251;28;20196;-73
2023/08/04 09:54:19;;;;;;;8.40;6.70;;;;;;;34.07;33.62;96657.88;5086627;28;20196;-70
2023/08/04 09:56:47;;;;;;;10.02;6.88;;;;;;;33.88;33.02;96664.31;5086537;28;20211;-72
2023/08/04 09:59:16;;;;;;;6.93;6.22;;;;;;;33.82;34.30;96657.16;5068384;28;20262;-73
2023/08/04 10:01:44;;;;;;;7.28;6.32;;;;;;;34.05;33.85;96657.28;5086658;28;20200;-72
2023/08/04 10:04:13;;;;;;;7.97;7.15;;;;;;;34.26;33.02;96656.81;5067442;28;20193;-73
2023/08/04 10:06:44;;;;;;;9.60;6.45;;;;;;;34.56;31.96;96657.66;5061343;28;20249;-74
2023/08/04 10:09:51;;;;;;;8.88;6.53;;;;;;;34.76;32.86;96663.59;5052143;28;20216;-71
2023/08/04 10:13:12;;;;;;;7.47;6.70;;;;;;;34.77;32.31;96664.38;5065694;28;20556;-75
2023/08/04 10:16:33;;;;;;;8.00;7.15;;;;;;;34.89;31.73;96655.28;5065565;28;20185;-72
2023/08/04 10:19:53;;;;;;;7.95;6.65;;;;;;;34.79;31.93;96655.03;5065259;28;20614;-73
2023/08/04 10:23:16;;;;;;;8.98;6.80;;;;;;;35.06;30.76;96660.84;5065503;28;20284;-72
2023/08/04 10:26:37;;;;;;;8.75;7.65;;;;;;;35.48;29.72;96661.59;5054351;28;20189;-72
2023/08/04 10:29:58;;;;;;;9.15;7.07;;;;;;;35.27;29.50;96659.44;5071920;28;20581;-73
2023/08/04 10:33:19;;;;;;;9.13;6.80;;;;;;;35.03;29.33;96662.16;5071468;28;20280;-72
2023/08/04 10:36:46;;;;;;;7.82;7.05;;;;;;;35.26;29.22;96653.25;5070771;28;20196;-77
2023/08/04 10:40:16;;;;;;;9.10;6.97;;;;;;;35.20;29.80;96655.00;5071589;28;20366;-73
2023/08/04 10:43:38;;;;;;;10.23;7.53;;;;;;;35.40;29.71;96661.91;5054247;28;20196;-74
2023/08/04 10:46:59;;;;;;;9.20;6.55;;;;;;;35.39;30.01;96661.09;5053712;28;20216;-73
2023/08/04 10:50:21;;;;;;;12.60;8.07;;;;;;;35.34;29.52;96652.09;5053250;28;20699;-73
2023/08/04 10:53:42;;;;;;;9.25;6.65;;;;;;;35.16;28.51;96661.06;5053233;28;20273;-73
2023/08/04 10:57:03;;;;;;;7.45;6.60;;;;;;;35.19;29.33;96653.38;5073113;28;20250;-72
2023/08/04 11:00:24;;;;;;;8.45;6.93;;;;;;;35.43;29.73;96648.78;5074103;28;20708;-72
2023/08/04 11:03:47;;;;;;;7.13;6.35;;;;;;;35.66;28.77;96662.28;5056297;28;20193;-73
2023/08/04 11:07:08;;;;;;;8.65;7.40;;;;;;;35.85;29.72;96652.16;5053566;28;20193;-72
2023/08/04 11:10:29;;;;;;;11.23;7.03;;;;;;;36.12;29.58;96652.47;5071631;28;20245;-76
2023/08/04 11:13:50;;;;;;;8.32;6.72;;;;;;;35.68;29.32;96656.66;5053113;28;20220;-71
2023/08/04 11:17:10;;;;;;;8.98;6.88;;;;;;;35.84;29.63;96642.44;5053206;28;20589;-74
2023/08/04 11:20:31;;;;;;;12.02;8.48;;;;;;;35.71;28.71;96634.63;5055538;28;20692;-73
2023/08/04 11:23:52;;;;;;;7.82;7.03;;;;;;;35.73;29.55;96638.72;5071007;28;20814;-72
2023/08/04 11:27:12;;;;;;;12.23;7.35;;;;;;;36.15;29.13;96639.31;5070988;28;20617;-73
2023/08/04 11:30:34;;;;;;;10.68;7.75;;;;;;;35.30;27.71;96516.25;5071280;28;20192;-72
2023/08/04 11:33:55;;;;;;;12.23;8.52;;;;;;;36.34;27.92;96632.69;5070693;28;20189;-72
2023/08/04 11:37:15;;;;;;;9.23;7.30;;;;;;;36.31;29.13;96633.19;5051715;28;20193;-77
2023/08/04 11:40:37;;;;;;;8.25;6.55;;;;;;;35.85;29.74;96631.44;5035582;28;20224;-72
2023/08/04 11:43:58;;;;;;;8.68;7.22;;;;;;;36.20;29.41;96623.25;5052150;28;20186;-75
2023/08/04 11:47:19;;;;;;;8.55;7.03;;;;;;;36.51;29.48;96616.56;5070238;28;20204;-73
2023/08/04 11:50:40;;;;;;;9.65;8.38;;;;;;;36.51;28.15;96622.78;5051177;28;20228;-76
2023/08/04 11:54:00;;;;;;;9.07;7.18;;;;;;;36.22;28.01;96614.91;5068294;28;20185;-73
2023/08/04 11:57:22;;;;;;;9.38;7.15;;;;;;;36.39;28.35;96615.78;5067857;28;20665;-74
2023/08/04 12:00:55;;;;;;;8.57;7.05;;;;;;;36.21;28.65;96616.78;5067836;28;20228;-71
2023/08/04 12:04:22;;;;;;;10.70;7.28;;;;;;;36.17;28.09;96610.22;5065846;28;20672;-75
2023/08/04 12:07:42;;;;;;;7.97;6.95;;;;;;;36.20;28.23;96601.66;5067301;28;20186;-73